Time;durP1;ratioP1;P1;durP2;ratioP2;P2;SDS_P1;SDS_P2;PMS_P1;PMS_P2;Temp;Humidity;BMP_temperature;BMP_pressure;BME280_temperature;BME280_humidity;BME280_pressure;Samples;Min_cycle;Max_cycle;Signal;HPM_P1;HPM_P2
2022/07/03 00:00:42;;;;;;;0.60;0.60;;;14.70;99.90;;;;;;5007193;28;20433;-69
2022/07/03 00:03:09;;;;;;;0.70;0.65;;;14.60;99.90;;;;;;4996947;28;20533;-71
2022/07/03 00:05:36;;;;;;;0.87;0.87;;;14.60;99.90;;;;;;5005329;28;20428;-69
2022/07/03 00:08:03;;;;;;;0.80;0.75;;;14.40;99.90;;;;;;5020513;28;20432;-69
2022/07/03 00:10:30;;;;;;;0.70;0.70;;;14.40;99.90;;;;;;5001647;28;20519;-70
2022/07/03 00:12:57;;;;;;;1.00;1.00;;;14.30;99.90;;;;;;5007448;28;20417;-69
2022/07/03 00:15:23;;;;;;;1.10;1.00;;;14.30;99.90;;;;;;5001998;28;20431;-69
2022/07/03 00:17:52;;;;;;;1.25;1.15;;;14.30;99.90;;;;;;4999044;28;22422;-68
2022/07/03 00:20:19;;;;;;;0.90;0.90;;;14.30;99.90;;;;;;5004082;28;20803;-69
2022/07/03 00:22:48;;;;;;;1.25;0.80;;;14.30;99.90;;;;;;5004808;28;21318;-69
2022/07/03 00:25:15;;;;;;;0.90;0.90;;;14.30;99.90;;;;;;5003107;28;20444;-69
2022/07/03 00:27:45;;;;;;;0.75;0.75;;;14.20;99.90;;;;;;5008463;28;20428;-69
2022/07/03 00:30:12;;;;;;;0.70;0.70;;;14.20;99.90;;;;;;5007661;28;20432;-69
2022/07/03 00:32:42;;;;;;;0.70;0.70;;;14.10;99.90;;;;;;5010780;28;20434;-69
2022/07/03 00:35:18;;;;;;;0.70;0.70;;;14.10;99.90;;;;;;5004071;28;20436;-70
2022/07/03 00:37:49;;;;;;;0.75;0.75;;;14.00;99.90;;;;;;5006577;28;20433;-69
2022/07/03 00:40:15;;;;;;;0.80;0.80;;;13.80;99.90;;;;;;5010425;28;20974;-69
2022/07/03 00:42:44;;;;;;;0.70;0.70;;;13.70;99.90;;;;;;5007771;28;20432;-69
2022/07/03 00:45:15;;;;;;;0.85;0.82;;;13.60;99.90;;;;;;5008095;28;20428;-70
2022/07/03 00:47:42;;;;;;;0.85;0.85;;;13.50;99.90;;;;;;5009120;28;20983;-69
2022/07/03 00:50:10;;;;;;;0.70;0.70;;;13.50;99.90;;;;;;5007711;28;20432;-69
2022/07/03 00:52:38;;;;;;;0.63;0.63;;;13.40;99.90;;;;;;5005003;28;20434;-70
2022/07/03 00:55:08;;;;;;;0.60;0.60;;;13.50;99.90;;;;;;5003298;28;20520;-70
2022/07/03 00:57:44;;;;;;;0.80;0.80;;;13.40;99.90;;;;;;5023491;28;20480;-70
2022/07/03 01:00:13;;;;;;;0.55;0.55;;;13.50;99.90;;;;;;4999114;28;20953;-70
2022/07/03 01:03:20;;;;;;;0.60;0.60;;;13.50;99.90;;;;;;5007548;28;21212;-70
2022/07/03 01:05:51;;;;;;;0.82;0.82;;;13.40;99.90;;;;;;5005819;28;20444;-70
2022/07/03 01:08:45;;;;;;;0.80;0.80;;;13.50;99.90;;;;;;4991937;28;20599;-70
2022/07/03 01:11:36;;;;;;;0.70;0.70;;;13.40;99.90;;;;;;5004520;28;20436;-70
2022/07/03 01:14:22;;;;;;;0.68;0.68;;;13.30;99.90;;;;;;5003563;28;20433;-70
2022/07/03 01:16:59;;;;;;;0.60;0.60;;;13.20;99.90;;;;;;4996666;28;20515;-70
2022/07/03 01:19:38;;;;;;;0.60;0.60;;;13.20;99.90;;;;;;5003113;28;20464;-70
2022/07/03 01:22:34;;;;;;;0.60;0.60;;;13.20;99.90;;;;;;4989414;28;20515;-70
2022/07/03 01:25:22;;;;;;;0.70;0.70;;;13.20;99.90;;;;;;5001522;28;21118;-70
2022/07/03 01:27:55;;;;;;;0.50;0.50;;;13.00;99.90;;;;;;5000022;28;20436;-70
2022/07/03 01:30:23;;;;;;;0.60;0.60;;;13.00;99.90;;;;;;4993969;28;20468;-70
2022/07/03 01:33:11;;;;;;;0.55;0.55;;;12.90;99.90;;;;;;5000590;28;20436;-70
2022/07/03 01:35:41;;;;;;;1.55;0.70;;;12.90;99.90;;;;;;4999800;28;20429;-70
2022/07/03 01:38:11;;;;;;;0.45;0.45;;;12.90;99.90;;;;;;5007291;28;20507;-70
2022/07/03 01:40:40;;;;;;;0.70;0.55;;;12.80;99.90;;;;;;5008845;28;20458;-70
2022/07/03 01:43:10;;;;;;;0.70;0.70;;;12.80;99.90;;;;;;5008643;28;20577;-70
2022/07/03 01:45:42;;;;;;;0.80;0.80;;;12.80;99.90;;;;;;5001233;28;20520;-70
2022/07/03 01:48:10;;;;;;;0.60;0.60;;;12.70;99.90;;;;;;5001494;28;20440;-70
2022/07/03 01:50:38;;;;;;;0.50;0.50;;;12.70;99.90;;;;;;5007324;28;20515;-70
2022/07/03 01:53:09;;;;;;;0.50;0.50;;;12.70;99.90;;;;;;5003970;28;20473;-69
2022/07/03 01:55:39;;;;;;;0.55;0.55;;;12.70;99.90;;;;;;5003471;28;20519;-69
2022/07/03 01:58:11;;;;;;;0.63;0.63;;;12.70;99.90;;;;;;5008348;28;20986;-69
2022/07/03 02:00:55;;;;;;;0.70;0.70;;;12.70;99.90;;;;;;5006191;28;20440;-69
2022/07/03 02:03:27;;;;;;;0.70;0.70;;;12.70;99.90;;;;;;5005053;28;20436;-69
2022/07/03 02:06:35;;;;;;;0.63;0.63;;;12.80;99.90;;;;;;5007697;28;20490;-69
2022/07/03 02:09:05;;;;;;;0.50;0.50;;;12.90;99.90;;;;;;5005407;28;20470;-69
2022/07/03 02:11:52;;;;;;;0.50;0.50;;;12.90;99.90;;;;;;5002339;28;20417;-69
2022/07/03 02:14:35;;;;;;;1.00;0.68;;;13.00;99.90;;;;;;5004415;28;20432;-69
2022/07/03 02:17:02;;;;;;;0.80;0.60;;;12.90;99.90;;;;;;5006370;28;20544;-69
2022/07/03 02:20:00;;;;;;;0.67;0.67;;;12.90;99.90;;;;;;5013528;28;20439;-69
2022/07/03 02:22:40;;;;;;;0.60;0.60;;;12.90;99.90;;;;;;5001261;28;20440;-69
2022/07/03 02:25:21;;;;;;;0.60;0.60;;;12.80;99.90;;;;;;5005890;28;20925;-69
2022/07/03 02:28:03;;;;;;;0.50;0.50;;;12.70;99.90;;;;;;5006121;28;20799;-69
2022/07/03 02:30:33;;;;;;;0.65;0.60;;;12.60;99.90;;;;;;5005962;28;20441;-69
2022/07/03 02:33:02;;;;;;;0.50;0.50;;;12.60;99.90;;;;;;5005392;28;20515;-69
2022/07/03 02:35:32;;;;;;;0.60;0.60;;;12.50;99.90;;;;;;5005784;28;20461;-69
2022/07/03 02:38:19;;;;;;;0.63;0.60;;;12.50;99.90;;;;;;5008154;28;20437;-69
2022/07/03 02:41:07;;;;;;;0.77;0.77;;;12.50;99.90;;;;;;5002016;28;20432;-69
2022/07/03 02:43:59;;;;;;;0.60;0.60;;;12.60;99.90;;;;;;5002652;28;20453;-69
2022/07/03 02:46:50;;;;;;;0.98;0.50;;;12.60;99.90;;;;;;5005450;28;20434;-69
2022/07/03 02:49:38;;;;;;;0.40;0.40;;;12.60;99.90;;;;;;5006762;28;20476;-69
2022/07/03 02:52:31;;;;;;;0.38;0.38;;;12.60;99.90;;;;;;5005761;28;20479;-69
2022/07/03 02:55:36;;;;;;;0.30;0.30;;;12.60;99.90;;;;;;5006870;28;21092;-69
2022/07/03 02:58:32;;;;;;;0.40;0.40;;;12.60;99.90;;;;;;5007945;28;20440;-70
2022/07/03 03:01:26;;;;;;;0.50;0.50;;;12.60;99.90;;;;;;5001285;28;20436;-70
2022/07/03 03:04:08;;;;;;;0.80;0.50;;;12.50;99.90;;;;;;5005459;28;20886;-69
2022/07/03 03:06:41;;;;;;;0.40;0.40;;;12.40;99.90;;;;;;5005485;28;21559;-69
2022/07/03 03:09:14;;;;;;;0.50;0.50;;;12.30;99.90;;;;;;5002695;28;20516;-70
2022/07/03 03:11:48;;;;;;;0.50;0.50;;;12.20;99.90;;;;;;5006681;28;20519;-70
2022/07/03 03:14:20;;;;;;;0.45;0.45;;;12.10;99.90;;;;;;5002839;28;20432;-70
2022/07/03 03:16:52;;;;;;;0.52;0.52;;;12.20;99.90;;;;;;5006700;28;20458;-70
2022/07/03 03:19:23;;;;;;;0.70;0.57;;;12.20;99.90;;;;;;5007082;28;20438;-70
2022/07/03 03:22:15;;;;;;;1.20;0.50;;;12.20;99.90;;;;;;5006563;28;20440;-70
2022/07/03 03:24:42;;;;;;;0.38;0.38;;;12.20;99.90;;;;;;5014568;28;20515;-69
2022/07/03 03:27:12;;;;;;;0.60;0.60;;;12.30;99.90;;;;;;5001427;28;20436;-70
2022/07/03 03:29:46;;;;;;;0.30;0.30;;;12.30;99.90;;;;;;5009234;28;20439;-70
2022/07/03 03:32:14;;;;;;;0.65;0.65;;;12.30;99.90;;;;;;5005360;28;20807;-71
2022/07/03 03:34:41;;;;;;;0.80;0.50;;;12.30;99.90;;;;;;4999409;28;20530;-70
2022/07/03 03:37:08;;;;;;;0.38;0.38;;;12.30;99.90;;;;;;5002595;28;20433;-70
2022/07/03 03:39:35;;;;;;;0.50;0.50;;;12.40;99.90;;;;;;5003389;28;21276;-70
2022/07/03 03:42:05;;;;;;;0.40;0.40;;;12.40;99.90;;;;;;5003581;28;20528;-70
2022/07/03 03:44:34;;;;;;;0.52;0.52;;;12.30;99.90;;;;;;5000122;28;20458;-70
2022/07/03 03:47:04;;;;;;;0.60;0.60;;;12.30;99.90;;;;;;4992702;28;20517;-70
2022/07/03 03:49:30;;;;;;;0.40;0.40;;;12.40;99.90;;;;;;5002201;28;20935;-71
2022/07/03 03:51:57;;;;;;;0.50;0.43;;;12.40;99.90;;;;;;5001922;28;20514;-70
2022/07/03 03:54:24;;;;;;;1.00;0.60;;;12.40;99.90;;;;;;4997394;28;20433;-70
2022/07/03 03:56:51;;;;;;;0.60;0.60;;;12.50;99.90;;;;;;5004466;28;20435;-70
2022/07/03 03:59:18;;;;;;;0.50;0.50;;;12.50;99.90;;;;;;5002645;28;20431;-70
2022/07/03 04:01:45;;;;;;;0.40;0.40;;;12.50;99.90;;;;;;5002710;28;20945;-70
2022/07/03 04:04:17;;;;;;;0.40;0.40;;;12.40;99.90;;;;;;5005149;28;20514;-70
2022/07/03 04:06:44;;;;;;;0.45;0.45;;;12.50;99.90;;;;;;5000658;28;20517;-70
2022/07/03 04:09:11;;;;;;;0.60;0.60;;;12.50;99.90;;;;;;5007139;28;20433;-70
2022/07/03 04:11:38;;;;;;;0.40;0.40;;;12.60;99.90;;;;;;4997151;28;20456;-70
2022/07/03 04:14:04;;;;;;;0.47;0.40;;;12.80;99.90;;;;;;5005695;28;20455;-70
2022/07/03 04:16:33;;;;;;;0.40;0.40;;;12.80;99.90;;;;;;5007129;28;20434;-70
2022/07/03 04:19:00;;;;;;;0.60;0.60;;;12.90;99.90;;;;;;4995526;28;20460;-70
2022/07/03 04:21:27;;;;;;;0.45;0.45;;;13.00;99.90;;;;;;5009505;28;20442;-70
2022/07/03 04:23:54;;;;;;;0.40;0.40;;;13.10;99.90;;;;;;5008618;28;20432;-70
2022/07/03 04:26:21;;;;;;;0.50;0.50;;;13.20;99.90;;;;;;5011239;28;20444;-69
2022/07/03 04:28:47;;;;;;;0.57;0.57;;;13.30;99.90;;;;;;5008632;28;20432;-70
2022/07/03 04:31:14;;;;;;;0.50;0.50;;;13.50;99.90;;;;;;5006806;28;21061;-72
2022/07/03 04:33:41;;;;;;;0.60;0.60;;;13.60;99.90;;;;;;5008634;28;20519;-72
2022/07/03 04:36:14;;;;;;;0.70;0.52;;;13.70;99.90;;;;;;5010251;28;20439;-72
2022/07/03 04:38:41;;;;;;;0.50;0.50;;;13.80;99.90;;;;;;5007836;28;20434;-72
2022/07/03 04:41:07;;;;;;;0.65;0.65;;;13.90;99.90;;;;;;5006657;28;20972;-72
2022/07/03 04:43:37;;;;;;;0.50;0.50;;;14.00;99.90;;;;;;5004888;28;20432;-72
2022/07/03 04:46:04;;;;;;;0.45;0.45;;;14.30;99.90;;;;;;5009796;28;20468;-72
2022/07/03 04:48:32;;;;;;;1.10;0.73;;;15.10;99.90;;;;;;5008013;28;20443;-72
2022/07/03 04:51:01;;;;;;;0.80;0.80;;;16.00;99.90;;;;;;5007712;28;20434;-72
2022/07/03 04:53:27;;;;;;;0.63;0.63;;;16.90;99.90;;;;;;5024449;28;20495;-73
2022/07/03 04:55:54;;;;;;;0.70;0.70;;;18.10;99.90;;;;;;5008180;28;20434;-72
2022/07/03 04:58:21;;;;;;;0.50;0.50;;;19.00;99.90;;;;;;5007935;28;20439;-71
2022/07/03 05:00:48;;;;;;;0.52;0.52;;;19.80;99.90;;;;;;5009170;28;20432;-71
2022/07/03 05:03:15;;;;;;;0.68;0.68;;;20.40;99.90;;;;;;5006727;28;20438;-71
2022/07/03 05:05:42;;;;;;;0.40;0.40;;;21.00;99.90;;;;;;5008161;28;20435;-71
2022/07/03 05:08:09;;;;;;;0.50;0.50;;;21.50;99.90;;;;;;5006677;28;20441;-71
2022/07/03 05:10:35;;;;;;;0.50;0.50;;;22.10;99.90;;;;;;5007818;28;20445;-71
2022/07/03 05:13:02;;;;;;;0.68;0.68;;;22.60;99.90;;;;;;5007572;28;20971;-71
2022/07/03 05:15:29;;;;;;;0.57;0.57;;;23.20;99.90;;;;;;5007795;28;20471;-71
2022/07/03 05:17:56;;;;;;;0.80;0.80;;;23.60;99.90;;;;;;5004650;28;20441;-71
2022/07/03 05:20:27;;;;;;;0.70;0.70;;;23.80;99.90;;;;;;5005299;28;20443;-71
2022/07/03 05:22:57;;;;;;;1.23;0.65;;;24.30;99.90;;;;;;5004028;28;20528;-71
2022/07/03 05:25:26;;;;;;;0.60;0.60;;;24.70;99.90;;;;;;5002074;28;20951;-71
2022/07/03 05:27:53;;;;;;;0.50;0.50;;;24.90;99.90;;;;;;4997974;28;20637;-72
2022/07/03 05:30:22;;;;;;;0.70;0.70;;;25.30;99.90;;;;;;5007101;28;20438;-72
2022/07/03 05:32:49;;;;;;;0.60;0.60;;;25.50;99.90;;;;;;5007058;28;20551;-73
2022/07/03 05:35:16;;;;;;;0.70;0.70;;;25.70;99.90;;;;;;4999583;28;20472;-72
2022/07/03 05:37:43;;;;;;;0.70;0.70;;;26.20;99.90;;;;;;5008876;28;20432;-72
2022/07/03 05:40:10;;;;;;;0.70;0.70;;;26.30;99.90;;;;;;5001058;28;20516;-73
2022/07/03 05:42:37;;;;;;;0.60;0.60;;;25.70;99.90;;;;;;5025967;28;20917;-72
2022/07/03 05:45:04;;;;;;;0.70;0.70;;;25.50;99.90;;;;;;5003630;28;20443;-72
2022/07/03 05:47:33;;;;;;;0.70;0.70;;;25.40;99.90;;;;;;5007022;28;20442;-72
2022/07/03 05:50:01;;;;;;;0.88;0.88;;;25.70;99.90;;;;;;5005344;28;20470;-71
2022/07/03 05:52:27;;;;;;;0.95;0.95;;;25.80;99.90;;;;;;5008041;28;20432;-71
2022/07/03 05:54:54;;;;;;;0.80;0.80;;;25.30;99.90;;;;;;5005644;28;20432;-72
2022/07/03 05:57:21;;;;;;;0.90;0.90;;;25.00;99.90;;;;;;5003683;28;20444;-72
2022/07/03 05:59:48;;;;;;;0.80;0.80;;;25.40;99.90;;;;;;5007502;28;20523;-72
2022/07/03 06:02:15;;;;;;;0.70;0.70;;;26.00;99.90;;;;;;5005184;28;20424;-71
2022/07/03 06:04:42;;;;;;;0.63;0.63;;;26.40;99.90;;;;;;5004764;28;20456;-72
2022/07/03 06:07:08;;;;;;;0.63;0.63;;;27.10;99.90;;;;;;5003296;28;20435;-72
2022/07/03 06:09:35;;;;;;;0.52;0.52;;;27.40;99.90;;;;;;5003576;28;20429;-72
2022/07/03 06:12:02;;;;;;;0.60;0.60;;;27.80;99.90;;;;;;5005752;28;20936;-72
2022/07/03 06:14:29;;;;;;;0.70;0.70;;;28.20;99.90;;;;;;5008220;28;20452;-72
2022/07/03 06:16:55;;;;;;;0.82;0.82;;;28.40;99.90;;;;;;5001676;28;20437;-72
2022/07/03 06:19:22;;;;;;;0.80;0.80;;;28.50;99.90;;;;;;5004527;28;20433;-70
2022/07/03 06:21:49;;;;;;;0.70;0.70;;;28.20;99.90;;;;;;5004862;28;20433;-71
2022/07/03 06:24:16;;;;;;;0.60;0.60;;;27.00;99.90;;;;;;5007608;28;20795;-71
2022/07/03 06:26:43;;;;;;;0.50;0.50;;;26.00;99.90;;;;;;5006058;28;20437;-71
2022/07/03 06:29:12;;;;;;;0.60;0.60;;;26.00;99.90;;;;;;5005831;28;20526;-72
2022/07/03 06:31:38;;;;;;;0.60;0.60;;;25.80;99.90;;;;;;4982046;28;20428;-73
2022/07/03 06:34:05;;;;;;;0.50;0.50;;;26.20;99.90;;;;;;5007256;28;20540;-72
2022/07/03 06:36:32;;;;;;;0.60;0.52;;;26.20;99.90;;;;;;5004304;28;20435;-71
2022/07/03 06:38:59;;;;;;;0.60;0.60;;;26.30;99.90;;;;;;5001183;28;20435;-72
2022/07/03 06:41:25;;;;;;;0.55;0.55;;;26.30;99.90;;;;;;5007454;28;20964;-71
2022/07/03 06:43:52;;;;;;;0.50;0.50;;;26.50;99.90;;;;;;5011025;28;20493;-70
2022/07/03 06:46:21;;;;;;;1.05;0.45;;;26.70;99.90;;;;;;5003602;28;20555;-69
2022/07/03 06:48:48;;;;;;;0.50;0.50;;;26.80;99.90;;;;;;5006301;28;20444;-71
2022/07/03 06:51:15;;;;;;;0.50;0.50;;;26.90;99.90;;;;;;5004209;28;20441;-69
2022/07/03 06:53:43;;;;;;;0.60;0.60;;;26.90;99.90;;;;;;4996833;28;20448;-71
2022/07/03 06:56:12;;;;;;;0.40;0.40;;;26.50;99.90;;;;;;5007538;28;20439;-70
2022/07/03 06:58:38;;;;;;;0.60;0.60;;;26.90;99.90;;;;;;5011467;28;20569;-70
2022/07/03 07:01:05;;;;;;;0.47;0.47;;;26.70;99.90;;;;;;5008564;28;20463;-69
2022/07/03 07:03:39;;;;;;;0.40;0.40;;;26.70;99.90;;;;;;5003699;28;20432;-70
2022/07/03 07:06:06;;;;;;;0.60;0.60;;;27.30;99.90;;;;;;5004312;28;20515;-69
2022/07/03 07:08:33;;;;;;;0.40;0.40;;;27.40;99.90;;;;;;5006734;28;20443;-70
2022/07/03 07:11:00;;;;;;;0.60;0.60;;;27.70;99.90;;;;;;5006526;28;20441;-69
2022/07/03 07:13:27;;;;;;;0.43;0.43;;;28.20;99.90;;;;;;5020945;28;20477;-69
2022/07/03 07:15:54;;;;;;;0.70;0.52;;;28.10;99.90;;;;;;4986866;28;20463;-69
2022/07/03 07:18:20;;;;;;;0.70;0.50;;;28.60;99.90;;;;;;5004381;28;20521;-69
2022/07/03 07:20:50;;;;;;;0.43;0.43;;;29.00;99.90;;;;;;5000057;28;20432;-69
2022/07/03 07:23:17;;;;;;;0.40;0.40;;;29.50;99.90;;;;;;4998076;28;20448;-70
2022/07/03 07:25:44;;;;;;;0.40;0.40;;;29.90;99.90;;;;;;5003807;28;20439;-69
2022/07/03 07:28:13;;;;;;;0.40;0.40;;;29.70;99.90;;;;;;5004657;28;20443;-69
2022/07/03 07:30:40;;;;;;;0.43;0.43;;;29.80;99.90;;;;;;5007207;28;21323;-69
2022/07/03 07:33:10;;;;;;;0.40;0.40;;;29.50;99.90;;;;;;5003806;28;20464;-70
2022/07/03 07:35:37;;;;;;;0.47;0.47;;;29.80;99.90;;;;;;5007268;28;20509;-70
2022/07/03 07:38:04;;;;;;;0.40;0.40;;;30.20;99.90;;;;;;5003578;28;20435;-70
2022/07/03 07:40:35;;;;;;;0.40;0.40;;;30.20;99.90;;;;;;5005359;28;20436;-68
2022/07/03 07:43:02;;;;;;;0.43;0.43;;;29.50;99.90;;;;;;5001967;28;20428;-68
2022/07/03 07:45:29;;;;;;;0.40;0.40;;;29.10;99.90;;;;;;5001459;28;20903;-68
2022/07/03 07:47:55;;;;;;;0.40;0.40;;;29.20;99.90;;;;;;4996481;28;20524;-68
2022/07/03 07:50:22;;;;;;;0.50;0.50;;;29.50;99.90;;;;;;5004488;28;20498;-69
2022/07/03 07:52:49;;;;;;;0.50;0.50;;;29.30;99.90;;;;;;5000593;28;20433;-69
2022/07/03 07:55:16;;;;;;;0.50;0.50;;;29.20;99.90;;;;;;5006228;28;20424;-69
2022/07/03 07:57:43;;;;;;;0.43;0.43;;;29.00;99.90;;;;;;5006539;28;20788;-69
2022/07/03 08:00:12;;;;;;;0.40;0.40;;;29.40;99.90;;;;;;5008091;28;20428;-69
2022/07/03 08:05:37;;;;;;;0.43;0.43;;;30.00;99.90;;;;;;5006966;28;20511;-68
2022/07/03 08:08:06;;;;;;;0.70;0.70;;;30.50;99.90;;;;;;5004263;28;20432;-68
2022/07/03 08:10:54;;;;;;;0.40;0.40;;;31.20;99.90;;;;;;5006131;28;21059;-67
2022/07/03 08:13:21;;;;;;;0.40;0.40;;;30.90;98.50;;;;;;4993129;28;20441;-68
2022/07/03 08:15:47;;;;;;;0.40;0.40;;;30.90;99.90;;;;;;5011512;28;20434;-67
2022/07/03 08:18:17;;;;;;;0.50;0.50;;;30.70;97.40;;;;;;5014038;28;20464;-67
2022/07/03 08:20:43;;;;;;;0.40;0.40;;;30.90;97.90;;;;;;5005917;28;20439;-67
2022/07/03 08:23:11;;;;;;;0.43;0.43;;;31.10;98.80;;;;;;4995306;28;20806;-68
2022/07/03 08:25:38;;;;;;;0.40;0.40;;;30.60;98.50;;;;;;5004755;28;20855;-67
2022/07/03 08:28:05;;;;;;;0.30;0.30;;;31.00;99.90;;;;;;5012035;28;20518;-68
2022/07/03 08:30:32;;;;;;;0.50;0.50;;;30.60;97.60;;;;;;5019950;28;20481;-68
2022/07/03 08:32:59;;;;;;;0.40;0.40;;;30.80;98.50;;;;;;5012996;28;20422;-69
2022/07/03 08:35:26;;;;;;;0.45;0.30;;;31.10;98.50;;;;;;5007302;28;20948;-67
2022/07/03 08:37:54;;;;;;;0.30;0.30;;;31.10;97.40;;;;;;5011717;28;20428;-68
2022/07/03 08:40:21;;;;;;;0.40;0.40;;;31.10;98.50;;;;;;5017487;28;20427;-68
2022/07/03 08:43:01;;;;;;;0.30;0.30;;;31.50;97.60;;;;;;4998558;28;20433;-68
2022/07/03 08:45:29;;;;;;;0.40;0.40;;;31.60;97.40;;;;;;5015019;28;20507;-68
2022/07/03 08:47:58;;;;;;;0.47;0.47;;;31.60;96.20;;;;;;5004922;28;20519;-68
2022/07/03 08:50:25;;;;;;;0.40;0.40;;;31.30;96.70;;;;;;4998857;28;21089;-68
2022/07/03 08:52:54;;;;;;;0.40;0.40;;;31.00;97.30;;;;;;5023207;28;20426;-68
2022/07/03 08:55:21;;;;;;;0.40;0.40;;;31.20;96.90;;;;;;5012817;28;20811;-68
2022/07/03 08:57:49;;;;;;;0.40;0.40;;;31.10;96.70;;;;;;5011317;28;20506;-69
2022/07/03 09:00:19;;;;;;;0.43;0.43;;;30.60;97.20;;;;;;5013963;28;20479;-68
2022/07/03 09:02:48;;;;;;;0.35;0.35;;;30.70;96.50;;;;;;5012649;28;20435;-68
2022/07/03 09:05:17;;;;;;;0.40;0.40;;;31.00;97.40;;;;;;5015194;28;20517;-68
2022/07/03 09:07:46;;;;;;;0.40;0.40;;;31.30;96.70;;;;;;5010030;28;20460;-68
2022/07/03 09:10:16;;;;;;;0.30;0.30;;;30.80;96.20;;;;;;5011705;28;20561;-67
2022/07/03 09:12:45;;;;;;;0.50;0.50;;;30.70;97.10;;;;;;5018708;28;20435;-68
2022/07/03 09:15:16;;;;;;;0.40;0.40;;;30.50;96.30;;;;;;5012270;28;22050;-69
2022/07/03 09:17:59;;;;;;;0.32;0.32;;;30.70;97.50;;;;;;5011968;28;20779;-70
2022/07/03 09:20:36;;;;;;;0.30;0.30;;;31.20;96.80;;;;;;5009476;28;20976;-68
2022/07/03 09:23:20;;;;;;;0.40;0.40;;;31.40;95.80;;;;;;4992564;28;20439;-69
2022/07/03 09:25:53;;;;;;;0.30;0.30;;;31.50;97.30;;;;;;4999098;28;20920;-68
2022/07/03 09:28:40;;;;;;;0.30;0.30;;;31.90;96.80;;;;;;5017332;28;20479;-68
2022/07/03 09:31:11;;;;;;;0.40;0.40;;;32.10;95.70;;;;;;4996262;28;20428;-68
2022/07/03 09:33:48;;;;;;;0.40;0.40;;;31.80;96.20;;;;;;5004589;28;20439;-68
2022/07/03 09:36:14;;;;;;;0.50;0.40;;;32.00;95.50;;;;;;5006110;28;20527;-69
2022/07/03 09:38:48;;;;;;;0.40;0.40;;;32.10;95.30;;;;;;5007133;28;20441;-68
2022/07/03 09:41:17;;;;;;;0.40;0.40;;;31.90;94.00;;;;;;5002045;28;20890;-68
2022/07/03 09:43:44;;;;;;;0.40;0.40;;;31.70;95.40;;;;;;5006851;28;20427;-69
2022/07/03 09:46:11;;;;;;;0.38;0.38;;;31.90;93.40;;;;;;4986283;28;20440;-69
2022/07/03 09:48:41;;;;;;;0.30;0.30;;;31.80;93.20;;;;;;5003900;28;20893;-69
2022/07/03 09:51:26;;;;;;;0.30;0.30;;;31.80;94.60;;;;;;5001688;28;20499;-68
2022/07/03 09:53:56;;;;;;;0.30;0.30;;;31.80;94.50;;;;;;5003562;28;20441;-68
2022/07/03 09:56:34;;;;;;;0.20;0.20;;;32.10;94.00;;;;;;4998481;28;20468;-68
2022/07/03 09:59:07;;;;;;;0.40;0.40;;;32.80;93.90;;;;;;4997516;28;20511;-69
2022/07/03 10:01:36;;;;;;;0.70;0.30;;;32.90;93.80;;;;;;5005174;28;20438;-69
2022/07/03 10:04:22;;;;;;;0.40;0.40;;;33.20;93.80;;;;;;5002669;28;20977;-68
2022/07/03 10:06:54;;;;;;;0.40;0.40;;;33.10;91.10;;;;;;5001485;28;20440;-69
2022/07/03 10:09:23;;;;;;;0.30;0.30;;;32.50;92.20;;;;;;4998361;28;20531;-70
2022/07/03 10:11:55;;;;;;;1.20;0.30;;;33.00;92.80;;;;;;5003363;28;20432;-70
2022/07/03 10:14:24;;;;;;;0.30;0.30;;;33.00;91.70;;;;;;5010252;28;20806;-70
2022/07/03 10:16:53;;;;;;;0.40;0.40;;;32.60;93.30;;;;;;5005210;28;20532;-70
2022/07/03 10:19:24;;;;;;;0.30;0.30;;;32.60;92.60;;;;;;5004075;28;20459;-69
2022/07/03 10:22:00;;;;;;;0.20;0.20;;;32.80;91.80;;;;;;5003852;28;20432;-69
2022/07/03 10:24:29;;;;;;;0.20;0.20;;;32.40;92.00;;;;;;5003484;28;20923;-70
2022/07/03 10:26:58;;;;;;;0.40;0.40;;;32.00;91.30;;;;;;5002757;28;20437;-68
2022/07/03 10:29:27;;;;;;;0.20;0.20;;;31.80;91.80;;;;;;5004757;28;20432;-71
2022/07/03 10:31:57;;;;;;;0.30;0.30;;;32.20;93.30;;;;;;5001195;28;20443;-70
2022/07/03 10:34:26;;;;;;;0.30;0.30;;;32.30;91.70;;;;;;5006101;28;20511;-69
2022/07/03 10:37:01;;;;;;;0.22;0.22;;;31.80;90.90;;;;;;5005097;28;20540;-69
2022/07/03 10:39:51;;;;;;;0.30;0.30;;;31.20;92.50;;;;;;5006925;28;20487;-69
2022/07/03 10:45:19;;;;;;;0.30;0.30;;;32.00;91.60;;;;;;5004213;28;20440;-71
2022/07/03 10:47:49;;;;;;;0.35;0.35;;;31.20;90.70;;;;;;5013261;28;20432;-70
2022/07/03 10:50:22;;;;;;;0.30;0.30;;;31.10;92.20;;;;;;5001349;28;20442;-72
2022/07/03 10:52:50;;;;;;;0.30;0.30;;;30.80;93.00;;;;;;5001783;28;20557;-69
2022/07/03 10:55:18;;;;;;;0.40;0.40;;;30.50;92.90;;;;;;5005096;28;20440;-71
2022/07/03 10:58:09;;;;;;;0.40;0.40;;;30.80;93.80;;;;;;5000786;28;20979;-69
2022/07/03 11:00:54;;;;;;;0.38;0.38;;;30.80;91.50;;;;;;5000982;28;20435;-69
2022/07/03 11:03:55;;;;;;;0.40;0.40;;;30.70;92.00;;;;;;4994756;28;20531;-67
2022/07/03 11:07:07;;;;;;;0.30;0.30;;;30.70;91.50;;;;;;5002197;28;20528;-68
2022/07/03 11:09:34;;;;;;;0.30;0.30;;;31.20;91.50;;;;;;5011314;28;20443;-68
2022/07/03 11:12:02;;;;;;;0.20;0.20;;;31.50;90.80;;;;;;5019911;28;20509;-68
2022/07/03 11:14:29;;;;;;;0.30;0.30;;;32.20;91.20;;;;;;5015984;28;20587;-67
2022/07/03 11:17:18;;;;;;;0.30;0.30;;;32.60;91.60;;;;;;5017410;28;20462;-68
2022/07/03 11:23:03;;;;;;;0.30;0.30;;;33.10;90.00;;;;;;5017143;28;20430;-67
2022/07/03 11:25:43;;;;;;;0.30;0.30;;;33.20;90.50;;;;;;5018925;28;20521;-67
2022/07/03 11:28:48;;;;;;;0.20;0.20;;;33.30;90.40;;;;;;5011864;28;20523;-70
2022/07/03 11:31:16;;;;;;;0.30;0.30;;;33.60;90.30;;;;;;5015533;28;20619;-69
2022/07/03 11:33:43;;;;;;;0.20;0.20;;;33.50;90.40;;;;;;5021157;28;20427;-67
2022/07/03 11:36:16;;;;;;;0.30;0.30;;;33.50;89.10;;;;;;5016138;28;20435;-68
2022/07/03 11:39:10;;;;;;;0.50;0.50;;;33.60;89.10;;;;;;5018792;28;20996;-68
2022/07/03 11:41:37;;;;;;;0.30;0.30;;;33.10;87.70;;;;;;5017644;28;20433;-68
2022/07/03 11:44:06;;;;;;;0.30;0.30;;;33.10;89.60;;;;;;5009698;28;20558;-68
2022/07/03 11:46:36;;;;;;;0.25;0.25;;;33.30;87.80;;;;;;5003143;28;20935;-67
2022/07/03 11:49:06;;;;;;;0.40;0.40;;;33.30;86.50;;;;;;5006899;28;20919;-68
2022/07/03 11:51:35;;;;;;;0.30;0.30;;;33.50;87.10;;;;;;5000232;28;20962;-68
2022/07/03 11:54:03;;;;;;;0.30;0.30;;;33.40;87.30;;;;;;5001720;28;20432;-68
2022/07/03 11:56:31;;;;;;;0.30;0.30;;;33.50;86.00;;;;;;5004301;28;20429;-69
2022/07/03 11:59:00;;;;;;;0.30;0.30;;;33.70;85.60;;;;;;5004285;28;20439;-69
2022/07/03 12:01:27;;;;;;;0.30;0.30;;;33.60;85.90;;;;;;5002623;28;20525;-68
2022/07/03 12:04:19;;;;;;;0.30;0.30;;;33.30;85.90;;;;;;5002095;28;20518;-68
2022/07/03 12:06:57;;;;;;;0.32;0.32;;;33.00;87.10;;;;;;5002629;28;21154;-68
2022/07/03 12:09:35;;;;;;;0.30;0.30;;;33.20;86.50;;;;;;5003391;28;20468;-68
2022/07/03 12:12:08;;;;;;;0.70;0.30;;;33.00;86.90;;;;;;5003760;28;20432;-68
2022/07/03 12:14:48;;;;;;;0.30;0.20;;;32.80;86.30;;;;;;5003309;28;20428;-72
2022/07/03 12:17:21;;;;;;;0.30;0.30;;;33.10;90.00;;;;;;4997372;28;20916;-67
2022/07/03 12:20:00;;;;;;;0.40;0.20;;;33.50;86.90;;;;;;4999191;28;20511;-70
2022/07/03 12:22:32;;;;;;;0.30;0.30;;;33.60;86.70;;;;;;4997109;28;20452;-67
2022/07/03 12:25:02;;;;;;;0.20;0.20;;;33.50;87.90;;;;;;5007118;28;21155;-68
2022/07/03 12:27:30;;;;;;;0.40;0.40;;;33.40;86.00;;;;;;5011071;28;20960;-68
2022/07/03 12:29:58;;;;;;;0.30;0.30;;;33.70;86.60;;;;;;5010843;28;20523;-67
2022/07/03 12:32:25;;;;;;;0.30;0.30;;;33.20;85.60;;;;;;5011437;28;20531;-67
2022/07/03 12:34:52;;;;;;;0.30;0.30;;;33.20;86.90;;;;;;5013132;28;20942;-68
2022/07/03 12:37:46;;;;;;;0.25;0.25;;;32.90;89.60;;;;;;5014879;28;21154;-68
2022/07/03 12:40:14;;;;;;;0.30;0.30;;;32.90;86.10;;;;;;5016857;28;20463;-70
2022/07/03 12:42:55;;;;;;;0.30;0.30;;;33.00;87.40;;;;;;5009132;28;20498;-67
2022/07/03 12:45:23;;;;;;;0.30;0.30;;;33.50;88.80;;;;;;5004863;28;20479;-68
2022/07/03 12:48:03;;;;;;;0.20;0.20;;;33.70;85.70;;;;;;5001989;28;20529;-70
2022/07/03 12:50:54;;;;;;;0.30;0.30;;;33.60;85.60;;;;;;5002053;28;20426;-66
2022/07/03 12:53:32;;;;;;;0.30;0.30;;;33.40;84.20;;;;;;5004900;28;21042;-67
2022/07/03 12:56:04;;;;;;;0.35;0.35;;;33.60;88.40;;;;;;5005578;28;20933;-66
2022/07/03 13:01:36;;;;;;;0.30;0.30;;;32.20;88.40;;;;;;5009720;28;20519;-66
2022/07/03 13:04:06;;;;;;;0.30;0.30;;;32.40;86.40;;;;;;4997871;28;20810;-66
2022/07/03 13:06:33;;;;;;;0.30;0.30;;;32.90;85.50;;;;;;5009674;28;20432;-67
2022/07/03 13:09:02;;;;;;;0.20;0.20;;;32.50;85.70;;;;;;5013578;28;20522;-68
2022/07/03 13:11:37;;;;;;;0.33;0.33;;;32.90;86.10;;;;;;5006010;28;20790;-67
2022/07/03 13:14:10;;;;;;;0.40;0.40;;;33.20;85.10;;;;;;5005185;28;20467;-68
2022/07/03 13:17:03;;;;;;;0.30;0.30;;;33.50;85.00;;;;;;4992835;28;20455;-68
2022/07/03 13:19:30;;;;;;;0.30;0.30;;;33.00;82.90;;;;;;5004153;28;20447;-68
2022/07/03 13:21:58;;;;;;;0.30;0.30;;;33.60;82.80;;;;;;5000692;28;20527;-68
2022/07/03 13:24:28;;;;;;;0.30;0.30;;;33.90;82.20;;;;;;4998873;28;20440;-68